createdAt,value
2023-04-15T00:01:07.300Z,85.11
2023-04-15T00:03:35.204Z,87.02
2023-04-15T00:06:02.616Z,87.37
2023-04-15T00:08:30.412Z,84.60
2023-04-15T00:10:59.705Z,87.27
2023-04-15T00:13:26.639Z,85.73
2023-04-15T00:15:53.645Z,83.78
2023-04-15T00:18:20.591Z,83.09
2023-04-15T00:20:47.980Z,82.60
2023-04-15T00:23:15.362Z,82.22
2023-04-15T00:25:42.516Z,84.42
2023-04-15T00:28:09.728Z,85.50
2023-04-15T00:30:36.869Z,85.34
2023-04-15T00:33:04.178Z,85.47
2023-04-15T00:35:33.942Z,87.16
2023-04-15T00:38:00.931Z,90.18
2023-04-15T00:40:28.108Z,92.11
2023-04-15T00:42:55.344Z,94.43
2023-04-15T00:45:22.386Z,95.21
2023-04-15T00:47:49.913Z,95.38
2023-04-15T00:50:16.976Z,95.66
2023-04-15T00:52:44.340Z,93.32
2023-04-15T00:55:11.517Z,95.47
2023-04-15T01:59:45.227Z,100.00
2023-04-15T02:02:12.543Z,100.00
2023-04-15T02:04:39.690Z,100.00
2023-04-15T03:07:43.913Z,100.00
2023-04-15T03:10:11.753Z,100.00
2023-04-15T03:12:38.754Z,100.00
2023-04-15T05:18:38.200Z,92.07
2023-04-15T05:21:05.737Z,90.90
2023-04-15T05:23:33.213Z,91.95
2023-04-15T05:26:00.106Z,89.39
2023-04-15T05:57:41.011Z,83.15
2023-04-15T06:00:08.500Z,82.91
2023-04-15T06:02:38.251Z,81.12
2023-04-15T06:05:10.200Z,83.37
2023-04-15T06:07:38.264Z,79.78
2023-04-15T06:10:06.247Z,79.48
2023-04-15T06:39:48.646Z,75.24
2023-04-15T06:42:15.820Z,75.68
2023-04-15T06:44:42.775Z,74.80
2023-04-15T06:47:09.690Z,72.64
2023-04-15T06:49:36.618Z,72.00
2023-04-15T06:52:05.310Z,71.41
2023-04-15T06:54:32.322Z,70.62
2023-04-15T06:56:59.338Z,69.48
2023-04-15T06:59:27.543Z,69.66
2023-04-15T07:01:54.665Z,69.68
2023-04-15T07:04:21.763Z,66.88
2023-04-15T07:06:48.895Z,66.20
2023-04-15T07:09:15.853Z,67.05
2023-04-15T07:11:44.086Z,65.29
2023-04-15T07:14:11.316Z,64.97
2023-04-15T07:16:38.379Z,65.20
2023-04-15T07:19:05.448Z,62.92
2023-04-15T07:21:34.969Z,60.72
2023-04-15T07:24:02.005Z,61.66
2023-04-15T07:26:30.334Z,60.55
2023-04-15T07:28:57.292Z,60.31
2023-04-15T07:31:24.656Z,61.30
2023-04-15T07:33:51.730Z,58.34
2023-04-15T07:36:19.032Z,57.30
2023-04-15T07:38:45.959Z,56.93
2023-04-15T07:41:13.030Z,56.29
2023-04-15T07:43:40.012Z,57.29
2023-04-15T07:46:07.185Z,55.80
2023-04-15T07:48:35.532Z,53.24
2023-04-15T07:51:03.744Z,53.08
2023-04-15T07:53:30.864Z,51.96
2023-04-15T07:55:57.977Z,51.95
2023-04-15T07:58:24.890Z,51.67
2023-04-15T08:00:52.059Z,49.57
2023-04-15T08:03:19.198Z,49.64
2023-04-15T08:05:47.495Z,48.33
2023-04-15T08:08:14.690Z,48.15
2023-04-15T08:10:41.617Z,47.77
2023-04-15T08:13:08.670Z,46.85
2023-04-15T08:15:35.672Z,47.87
2023-04-15T08:18:02.683Z,47.47
2023-04-15T08:20:30.169Z,46.21
2023-04-15T08:22:57.416Z,45.73
2023-04-15T08:25:24.416Z,42.89
2023-04-15T08:27:51.823Z,42.34
2023-04-15T08:30:19.636Z,42.78
2023-04-15T08:32:47.753Z,43.15
2023-04-15T08:35:14.800Z,42.99
2023-04-15T08:37:41.932Z,43.09
2023-04-15T08:40:10.123Z,42.84
2023-04-15T08:42:49.172Z,43.95
2023-04-15T08:45:18.394Z,41.68
2023-04-15T08:47:45.983Z,41.79
2023-04-15T08:50:15.528Z,41.31
2023-04-15T08:52:42.615Z,40.68
2023-04-15T08:55:10.867Z,40.02
2023-04-15T08:57:38.453Z,39.22
2023-04-15T09:00:06.919Z,38.64
2023-04-15T09:02:34.140Z,38.77
2023-04-15T09:05:01.434Z,37.54
2023-04-15T09:07:28.318Z,36.88
2023-04-15T09:09:55.322Z,36.81
2023-04-15T09:12:23.150Z,36.64
2023-04-15T09:14:51.521Z,36.17
2023-04-15T09:17:20.842Z,36.42
2023-04-15T09:19:48.344Z,36.48
2023-04-15T09:22:15.825Z,35.49
2023-04-15T09:24:43.635Z,35.84
2023-04-15T09:27:11.365Z,34.02
2023-04-15T09:29:38.489Z,30.68
2023-04-15T09:32:15.880Z,33.70
2023-04-15T09:34:43.344Z,30.45
2023-04-15T09:37:11.764Z,31.09
2023-04-15T09:39:52.962Z,30.16
2023-04-15T09:42:27.570Z,30.63
2023-04-15T09:44:54.694Z,31.88
2023-04-15T09:47:30.090Z,32.56
2023-04-15T09:50:01.304Z,32.46
2023-04-15T09:52:29.134Z,32.46
2023-04-15T09:54:58.670Z,29.05
2023-04-15T09:57:25.931Z,29.49
2023-04-15T09:59:52.984Z,30.10
2023-04-15T10:02:21.720Z,30.57
2023-04-15T10:04:50.120Z,30.57
2023-04-15T10:07:20.839Z,31.40
2023-04-15T10:09:51.989Z,31.19
2023-04-15T10:12:20.767Z,30.32
2023-04-15T10:14:59.734Z,29.19
2023-04-15T10:17:33.896Z,29.49
2023-04-15T10:20:05.604Z,30.46
2023-04-15T10:22:33.510Z,30.71
2023-04-15T10:25:01.448Z,30.97
2023-04-15T10:27:29.248Z,31.07
2023-04-15T10:29:57.433Z,29.37
2023-04-15T10:32:25.937Z,29.50
2023-04-15T10:34:54.718Z,28.83
2023-04-15T10:37:23.550Z,29.31
2023-04-15T10:39:50.994Z,30.60
2023-04-15T10:42:20.352Z,31.19
2023-04-15T10:44:54.264Z,31.32
2023-04-15T10:47:22.297Z,31.07
2023-04-15T10:49:51.845Z,31.37
2023-04-15T10:52:24.455Z,31.95
2023-04-15T10:55:03.606Z,31.21
2023-04-15T10:57:36.712Z,30.57
2023-04-15T11:00:15.146Z,30.85
2023-04-15T11:03:09.092Z,30.75
2023-04-15T11:05:42.230Z,30.98
2023-04-15T11:08:13.240Z,31.22
2023-04-15T11:10:40.115Z,30.01
2023-04-15T11:13:25.441Z,31.15
2023-04-15T11:15:57.086Z,31.55
2023-04-15T11:18:26.782Z,30.85
2023-04-15T11:20:56.808Z,31.32
2023-04-15T11:23:31.288Z,31.91
2023-04-15T11:25:59.720Z,31.80
2023-04-15T11:28:29.143Z,31.00
2023-04-15T11:30:56.935Z,30.85
2023-04-15T11:33:24.959Z,30.13
2023-04-15T11:35:55.512Z,29.98
2023-04-15T11:38:23.087Z,30.09
2023-04-15T11:40:52.435Z,30.49
2023-04-15T11:43:21.864Z,30.44
2023-04-15T11:45:56.624Z,29.67
2023-04-15T11:48:36.027Z,30.52
2023-04-15T11:51:08.165Z,30.52
2023-04-15T11:53:49.549Z,29.55
2023-04-15T11:56:22.189Z,29.68
2023-04-15T11:58:53.040Z,29.99
2023-04-15T12:01:20.307Z,28.70
2023-04-15T12:03:49.918Z,28.65
2023-04-15T12:06:25.639Z,28.55
2023-04-15T12:09:09.909Z,28.80
2023-04-15T12:11:45.283Z,28.63
2023-04-15T12:14:32.327Z,28.60
2023-04-15T12:17:01.821Z,28.52
2023-04-15T12:19:32.904Z,28.36
2023-04-15T12:22:02.676Z,27.36
2023-04-15T12:24:32.900Z,26.86
2023-04-15T12:27:06.839Z,27.54
2023-04-15T12:29:35.916Z,27.92
2023-04-15T12:32:09.959Z,27.78
2023-04-15T12:34:39.792Z,28.29
2023-04-15T12:37:09.953Z,28.26
2023-04-15T12:39:38.743Z,28.53
2023-04-15T12:42:06.407Z,28.54
2023-04-15T12:44:34.252Z,28.49
2023-04-15T12:47:01.657Z,27.82
2023-04-15T12:49:29.251Z,28.18
2023-04-15T12:51:57.766Z,27.73
2023-04-15T12:54:24.635Z,27.70
2023-04-15T12:56:51.722Z,27.49
2023-04-15T12:59:19.043Z,27.67
2023-04-15T13:01:47.688Z,27.99
2023-04-15T13:04:15.690Z,28.04
2023-04-15T13:06:43.430Z,27.86
2023-04-15T13:09:10.605Z,27.93
2023-04-15T13:11:37.483Z,28.26
2023-04-15T13:14:07.567Z,27.63
2023-04-15T13:16:35.384Z,27.84
2023-04-15T13:19:04.027Z,27.40
2023-04-15T13:21:35.585Z,27.28
2023-04-15T13:24:03.488Z,27.44
2023-04-15T13:26:31.676Z,27.71
2023-04-15T13:28:58.836Z,27.90
2023-04-15T13:31:25.802Z,27.76
2023-04-15T13:33:52.831Z,27.32
2023-04-15T13:36:19.883Z,27.21
2023-04-15T13:38:48.036Z,27.15
2023-04-15T13:41:16.838Z,27.07
2023-04-15T13:43:43.825Z,26.64
2023-04-15T13:46:11.438Z,26.23
2023-04-15T13:48:38.525Z,25.86
2023-04-15T13:51:05.510Z,26.21
2023-04-15T13:53:38.398Z,26.31
2023-04-15T13:56:10.820Z,26.47
2023-04-15T13:58:38.643Z,26.22
2023-04-15T14:01:07.322Z,26.39
2023-04-15T14:03:37.913Z,26.60
2023-04-15T14:06:06.223Z,26.32
2023-04-15T14:08:33.538Z,26.23
2023-04-15T14:11:00.784Z,26.48
2023-04-15T14:13:27.748Z,25.89
2023-04-15T14:15:54.751Z,25.97
2023-04-15T14:18:21.808Z,26.30
2023-04-15T14:20:48.788Z,26.28
2023-04-15T14:23:15.769Z,26.43
2023-04-15T14:25:42.750Z,26.37
2023-04-15T14:28:09.691Z,26.17
2023-04-15T14:30:36.783Z,26.04
2023-04-15T14:33:04.179Z,25.97
2023-04-15T14:35:31.437Z,26.20
2023-04-15T14:37:58.631Z,26.35
2023-04-15T14:40:25.597Z,25.55
2023-04-15T14:42:52.519Z,26.26
2023-04-15T14:45:19.477Z,26.47
2023-04-15T14:47:47.250Z,26.25
2023-04-15T14:50:14.312Z,26.09
2023-04-15T14:52:41.373Z,26.05
2023-04-15T14:55:10.648Z,25.76
2023-04-15T14:57:41.651Z,25.82
2023-04-15T15:00:13.166Z,25.74
2023-04-15T15:02:43.780Z,26.51
2023-04-15T15:05:12.457Z,26.52
2023-04-15T15:07:41.234Z,26.50
2023-04-15T15:10:08.650Z,26.48
2023-04-15T15:12:35.700Z,26.60
2023-04-15T15:15:12.344Z,26.77
2023-04-15T15:17:43.122Z,26.48
2023-04-15T15:20:10.749Z,26.79
2023-04-15T15:22:37.691Z,26.56
2023-04-15T15:25:05.167Z,26.61
2023-04-15T15:27:32.320Z,26.74
2023-04-15T15:29:59.693Z,26.56
2023-04-15T15:32:26.853Z,26.66
2023-04-15T15:34:53.851Z,27.14
2023-04-15T15:37:20.948Z,27.82
2023-04-15T15:39:48.750Z,28.06
2023-04-15T15:42:15.673Z,27.84
2023-04-15T15:44:42.632Z,27.96
2023-04-15T15:47:09.676Z,27.72
2023-04-15T15:49:36.655Z,27.74
2023-04-15T15:52:03.607Z,27.67
2023-04-15T15:54:30.517Z,27.55
2023-04-15T15:56:57.784Z,27.20
2023-04-15T15:59:25.763Z,27.24
2023-04-15T16:01:54.661Z,27.48
2023-04-15T16:04:21.769Z,27.20
2023-04-15T16:06:48.874Z,26.92
2023-04-15T16:09:16.232Z,27.08
2023-04-15T16:11:45.107Z,27.28
2023-04-15T16:14:12.203Z,26.67
2023-04-15T16:16:39.689Z,26.83
2023-04-15T16:19:06.837Z,26.55
2023-04-15T16:21:34.727Z,26.45
2023-04-15T16:24:02.440Z,26.54
2023-04-15T16:26:29.416Z,27.01
2023-04-15T16:28:56.493Z,27.49
2023-04-15T16:31:23.533Z,28.23
2023-04-15T16:33:50.555Z,28.38
2023-04-15T16:36:17.471Z,28.75
2023-04-15T16:38:46.692Z,28.95
2023-04-15T16:41:13.578Z,28.95
2023-04-15T16:43:40.769Z,28.77
2023-04-15T16:46:08.481Z,28.73
2023-04-15T16:48:35.420Z,29.06
2023-04-15T16:51:02.314Z,29.24
2023-04-15T16:53:29.214Z,29.18
2023-04-15T16:55:56.261Z,29.29
2023-04-15T16:58:23.370Z,29.90
2023-04-15T17:00:50.961Z,30.06
2023-04-15T17:03:18.081Z,29.98
2023-04-15T17:05:45.222Z,30.01
2023-04-15T17:08:12.255Z,30.46
2023-04-15T17:10:41.757Z,30.57
2023-04-15T17:13:08.874Z,30.80
2023-04-15T17:15:35.965Z,30.74
2023-04-15T17:18:03.054Z,31.17
2023-04-15T17:20:30.598Z,31.31
2023-04-15T17:22:58.086Z,31.32
2023-04-15T17:25:25.032Z,31.30
2023-04-15T17:27:52.201Z,31.77
2023-04-15T17:30:19.646Z,31.88
2023-04-15T17:32:46.727Z,31.98
2023-04-15T17:35:13.960Z,32.54
2023-04-15T17:37:41.183Z,32.79
2023-04-15T17:40:09.039Z,32.99
2023-04-15T17:42:36.123Z,33.00
2023-04-15T17:45:03.204Z,32.76
2023-04-15T17:47:30.123Z,32.65
2023-04-15T17:49:57.054Z,32.50
2023-04-15T17:52:24.116Z,32.33
2023-04-15T17:54:51.125Z,32.40
2023-04-15T17:57:18.121Z,32.32
2023-04-15T17:59:47.657Z,33.00
2023-04-15T18:02:15.726Z,32.65
2023-04-15T18:04:42.818Z,32.78
2023-04-15T18:07:09.855Z,33.20
2023-04-15T18:09:37.055Z,33.36
2023-04-15T18:12:04.906Z,33.41
2023-04-15T18:14:34.700Z,33.13
2023-04-15T18:17:03.252Z,33.27
2023-04-15T18:19:31.060Z,33.08
2023-04-15T18:22:00.544Z,32.88
2023-04-15T18:24:28.111Z,33.29
2023-04-15T18:26:56.704Z,32.00
2023-04-15T18:29:23.611Z,31.52
2023-04-15T18:31:50.728Z,31.59
2023-04-15T18:34:17.831Z,31.85
2023-04-15T18:36:44.762Z,31.96
2023-04-15T18:39:11.812Z,31.97
2023-04-15T18:41:38.792Z,31.92
2023-04-15T18:44:05.716Z,32.08
2023-04-15T18:46:32.717Z,31.88
2023-04-15T18:48:59.664Z,32.13
2023-04-15T18:51:27.578Z,31.86
2023-04-15T18:53:54.515Z,31.86
2023-04-15T18:56:21.592Z,31.91
2023-04-15T18:59:26.873Z,32.46
2023-04-15T19:01:35.738Z,33.29
2023-04-15T19:04:03.560Z,33.39
2023-04-15T19:06:31.147Z,33.46
2023-04-15T19:08:58.793Z,34.10
2023-04-15T19:11:26.324Z,34.10
2023-04-15T19:13:53.375Z,34.14
2023-04-15T19:16:20.823Z,34.52
2023-04-15T19:18:47.834Z,34.95
2023-04-15T19:21:15.734Z,34.96
2023-04-15T19:23:45.532Z,35.22
2023-04-15T19:26:12.613Z,35.81
2023-04-15T19:28:40.008Z,35.51
2023-04-15T19:31:06.988Z,35.55
2023-04-15T19:33:34.446Z,35.69
2023-04-15T19:36:04.274Z,36.15
2023-04-15T19:38:31.723Z,35.99
2023-04-15T19:40:59.165Z,36.57
2023-04-15T19:43:26.208Z,36.39
2023-04-15T19:45:54.962Z,36.55
2023-04-15T19:48:23.399Z,37.37
2023-04-15T19:50:50.495Z,38.33
2023-04-15T19:53:17.511Z,38.43
2023-04-15T19:55:44.495Z,38.55
2023-04-15T19:58:11.635Z,38.76
2023-04-15T20:00:38.940Z,38.87
2023-04-15T20:03:06.313Z,38.99
2023-04-15T20:05:33.472Z,39.29
2023-04-15T20:08:01.630Z,39.43
2023-04-15T20:10:28.580Z,39.46
2023-04-15T20:12:55.672Z,39.34
2023-04-15T20:15:24.078Z,39.13
2023-04-15T20:17:51.427Z,39.26
2023-04-15T20:20:18.930Z,39.42
2023-04-15T20:22:46.014Z,39.30
2023-04-15T20:25:13.041Z,39.73
2023-04-15T20:27:40.065Z,39.61
2023-04-15T20:30:07.688Z,40.03
2023-04-15T20:32:36.298Z,39.86
2023-04-15T20:35:05.337Z,40.04
2023-04-15T20:37:33.830Z,39.97
2023-04-15T20:40:01.557Z,39.91
2023-04-15T20:42:32.234Z,40.17
2023-04-15T20:44:59.210Z,40.07
2023-04-15T20:47:26.500Z,40.38
2023-04-15T20:49:54.179Z,40.67
2023-04-15T20:52:21.150Z,40.82
2023-04-15T20:54:48.159Z,41.15
2023-04-15T20:57:15.215Z,41.38
2023-04-15T20:59:42.151Z,41.35
2023-04-15T21:02:09.172Z,42.11
2023-04-15T21:04:38.163Z,42.15
2023-04-15T21:07:05.236Z,41.85
2023-04-15T21:09:32.288Z,42.14
2023-04-15T21:12:01.666Z,41.69
2023-04-15T21:14:30.382Z,41.98
2023-04-15T21:16:58.475Z,42.05
2023-04-15T21:19:25.641Z,42.51
2023-04-15T21:21:52.644Z,41.82
2023-04-15T21:24:19.654Z,42.22
2023-04-15T21:26:46.720Z,41.63
2023-04-15T21:29:13.956Z,41.93
2023-04-15T21:31:41.325Z,42.26
2023-04-15T21:34:09.466Z,41.78
2023-04-15T21:36:37.456Z,42.65
2023-04-15T21:39:06.013Z,42.43
2023-04-15T21:41:33.076Z,42.03
2023-04-15T21:44:00.372Z,42.24
2023-04-15T21:46:32.920Z,42.38
2023-04-15T21:49:02.114Z,42.61
2023-04-15T21:51:29.277Z,42.25
2023-04-15T21:53:57.614Z,42.58
2023-04-15T21:56:25.632Z,42.74
2023-04-15T21:58:59.502Z,42.60
2023-04-15T22:01:26.960Z,42.91
2023-04-15T22:03:54.250Z,43.26
2023-04-15T22:06:21.722Z,43.45
2023-04-15T22:08:56.672Z,43.52
2023-04-15T22:11:28.694Z,43.57
2023-04-15T22:13:59.641Z,43.45
2023-04-15T22:16:27.097Z,43.68
2023-04-15T22:18:55.012Z,43.21
2023-04-15T22:21:22.047Z,43.73
2023-04-15T22:23:49.921Z,43.77
2023-04-15T22:26:18.181Z,43.33
2023-04-15T22:28:45.563Z,43.35
2023-04-15T22:31:13.890Z,43.23
2023-04-15T22:33:40.908Z,43.66
2023-04-15T22:36:08.008Z,44.03
2023-04-15T22:38:34.955Z,44.58
2023-04-15T22:41:01.925Z,50.16
2023-04-15T22:43:29.070Z,51.26
2023-04-15T22:45:56.909Z,51.29
